createdAt,value
2018-04-25T00:00:37.330Z,959.91
2018-04-25T00:01:37.284Z,959.89
2018-04-25T00:02:37.250Z,959.87
2018-04-25T00:03:37.200Z,959.84
2018-04-25T00:04:37.155Z,959.80
2018-04-25T00:05:37.111Z,959.85
2018-04-25T00:06:37.067Z,959.82
2018-04-25T00:07:37.023Z,959.83
2018-04-25T00:08:36.976Z,959.82
2018-04-25T00:09:36.934Z,959.82
2018-04-25T00:10:36.886Z,959.79
2018-04-25T00:11:36.842Z,959.74
2018-04-25T00:12:36.795Z,959.79
2018-04-25T00:13:36.743Z,959.75
2018-04-25T00:14:36.734Z,959.71
2018-04-25T00:15:36.665Z,959.70
2018-04-25T00:16:36.618Z,959.73
2018-04-25T00:17:36.573Z,959.75
2018-04-25T00:18:36.529Z,959.74
2018-04-25T00:19:36.491Z,959.73
2018-04-25T00:20:36.441Z,959.67
2018-04-25T00:21:36.402Z,959.75
2018-04-25T00:22:36.355Z,959.67
2018-04-25T00:23:36.303Z,959.70
2018-04-25T00:24:36.260Z,959.68
2018-04-25T00:25:36.205Z,959.67
2018-04-25T00:26:36.170Z,959.67
2018-04-25T00:27:36.127Z,959.60
2018-04-25T00:28:36.086Z,959.64
2018-04-25T00:29:36.155Z,959.64
2018-04-25T00:30:35.994Z,959.66
2018-04-25T00:31:35.946Z,959.62
2018-04-25T00:32:35.913Z,959.61
2018-04-25T00:33:35.856Z,959.61
2018-04-25T00:34:35.811Z,959.62
2018-04-25T00:35:35.765Z,959.61
2018-04-25T00:36:35.720Z,959.64
2018-04-25T00:37:35.672Z,959.62
2018-04-25T00:38:35.635Z,959.60
2018-04-25T00:39:35.586Z,959.64
2018-04-25T00:40:35.545Z,959.58
2018-04-25T00:41:35.496Z,959.59
2018-04-25T00:42:35.449Z,959.60
2018-04-25T00:43:35.409Z,959.59
2018-04-25T00:44:35.361Z,959.59
2018-04-25T00:45:35.329Z,959.58
2018-04-25T00:46:35.284Z,959.58
2018-04-25T00:47:35.225Z,959.59
2018-04-25T00:48:35.180Z,959.58
2018-04-25T00:49:35.135Z,959.55
2018-04-25T00:50:35.091Z,959.55
2018-04-25T00:51:35.045Z,959.55
2018-04-25T00:52:35.025Z,959.55
2018-04-25T00:53:34.954Z,959.51
2018-04-25T00:54:34.908Z,959.58
2018-04-25T00:55:34.864Z,959.55
2018-04-25T00:56:34.819Z,959.56
2018-04-25T00:57:34.774Z,959.57
2018-04-25T00:58:34.734Z,959.53
2018-04-25T00:59:34.694Z,959.53
2018-04-25T01:00:34.640Z,959.51
2018-04-25T01:01:34.622Z,959.53
2018-04-25T01:02:34.549Z,959.58
2018-04-25T01:03:34.518Z,959.55
2018-04-25T01:04:34.461Z,959.55
2018-04-25T01:05:34.466Z,959.55
2018-04-25T01:06:34.367Z,959.55
2018-04-25T01:07:34.321Z,959.56
2018-04-25T01:08:34.276Z,959.55
2018-04-25T01:09:34.232Z,959.57
2018-04-25T01:10:34.189Z,959.56
2018-04-25T01:11:34.141Z,959.55
2018-04-25T01:12:34.102Z,959.57
2018-04-25T01:13:34.050Z,959.57
2018-04-25T01:14:34.011Z,959.60
2018-04-25T01:15:33.959Z,959.54
2018-04-25T01:16:33.917Z,959.57
2018-04-25T01:17:33.862Z,959.56
2018-04-25T01:18:33.827Z,959.55
2018-04-25T01:19:33.778Z,959.57
2018-04-25T01:20:33.734Z,959.54
2018-04-25T01:21:33.684Z,959.53
2018-04-25T01:22:33.647Z,959.56
2018-04-25T01:23:33.613Z,959.56
2018-04-25T01:24:33.623Z,959.54
2018-04-25T01:25:33.507Z,959.58
2018-04-25T01:26:33.462Z,959.54
2018-04-25T01:27:33.422Z,959.53
2018-04-25T01:28:33.372Z,959.50
2018-04-25T01:29:33.333Z,959.49
2018-04-25T01:30:33.280Z,959.52
2018-04-25T01:31:33.229Z,959.50
2018-04-25T01:32:33.195Z,959.51
2018-04-25T01:33:33.145Z,959.55
2018-04-25T01:34:33.100Z,959.54
2018-04-25T01:35:33.052Z,959.52
2018-04-25T01:36:33.010Z,959.59
2018-04-25T01:37:32.965Z,959.55
2018-04-25T01:38:32.923Z,959.58
2018-04-25T01:39:32.870Z,959.60
2018-04-25T01:40:32.826Z,959.57
2018-04-25T01:41:32.783Z,959.60
2018-04-25T01:42:32.736Z,959.59
2018-04-25T01:43:32.697Z,959.58
2018-04-25T01:44:32.645Z,959.58
2018-04-25T01:45:32.603Z,959.61
2018-04-25T01:46:32.555Z,959.59
2018-04-25T01:47:32.509Z,959.63
2018-04-25T01:48:32.470Z,959.64
2018-04-25T01:49:32.420Z,959.62
2018-04-25T01:50:32.380Z,959.60
2018-04-25T01:51:32.329Z,959.67
2018-04-25T01:52:32.290Z,959.68
2018-04-25T01:53:32.238Z,959.68
2018-04-25T01:54:32.193Z,959.65
2018-04-25T01:55:32.148Z,959.69
2018-04-25T01:56:32.100Z,959.69
2018-04-25T01:57:32.055Z,959.66
2018-04-25T01:58:32.011Z,959.66
2018-04-25T01:59:31.967Z,959.66
2018-04-25T02:00:31.922Z,959.63
2018-04-25T02:01:31.873Z,959.68
2018-04-25T02:02:31.831Z,959.65
2018-04-25T02:03:31.783Z,959.65
2018-04-25T02:04:31.738Z,959.67
2018-04-25T02:05:31.697Z,959.71
2018-04-25T02:06:31.648Z,959.64
2018-04-25T02:07:31.602Z,959.65
2018-04-25T02:08:31.554Z,959.71
2018-04-25T02:09:31.512Z,959.64
2018-04-25T02:10:31.467Z,959.69
2018-04-25T02:11:31.421Z,959.67
2018-04-25T02:12:31.382Z,959.64
2018-04-25T02:13:31.331Z,959.63
2018-04-25T02:14:31.287Z,959.61
2018-04-25T02:15:31.240Z,959.60
2018-04-25T02:16:31.188Z,959.66
2018-04-25T02:17:31.156Z,959.64
2018-04-25T02:18:31.146Z,959.63
2018-04-25T02:19:31.059Z,959.60
2018-04-25T02:20:31.014Z,959.59
2018-04-25T02:21:30.974Z,959.63
2018-04-25T02:22:30.926Z,959.57
2018-04-25T02:23:30.876Z,959.58
2018-04-25T02:24:30.840Z,959.58
2018-04-25T02:25:30.785Z,959.58
2018-04-25T02:26:30.741Z,959.59
2018-04-25T02:27:30.693Z,959.61
2018-04-25T02:28:30.718Z,959.59
2018-04-25T02:29:30.602Z,959.59
2018-04-25T02:30:30.559Z,959.60
2018-04-25T02:31:30.519Z,959.59
2018-04-25T02:32:30.473Z,959.59
2018-04-25T02:33:30.423Z,959.62
2018-04-25T02:34:30.379Z,959.60
2018-04-25T02:35:30.333Z,959.60
2018-04-25T02:36:30.287Z,959.61
2018-04-25T02:37:30.248Z,959.59
2018-04-25T02:38:30.196Z,959.57
2018-04-25T02:39:30.150Z,959.56
2018-04-25T02:40:30.106Z,959.54
2018-04-25T02:41:30.063Z,959.61
2018-04-25T02:42:30.014Z,959.56
2018-04-25T02:43:29.971Z,959.60
2018-04-25T02:44:29.932Z,959.60
2018-04-25T02:45:29.886Z,959.56
2018-04-25T02:46:29.833Z,959.63
2018-04-25T02:47:29.789Z,959.59
2018-04-25T02:48:29.747Z,959.56
2018-04-25T02:49:29.699Z,959.53
2018-04-25T02:50:29.651Z,959.53
2018-04-25T02:51:29.605Z,959.52
2018-04-25T02:52:29.567Z,959.50
2018-04-25T02:53:29.514Z,959.51
2018-04-25T02:54:29.469Z,959.52
2018-04-25T02:55:29.422Z,959.50
2018-04-25T02:56:29.376Z,959.54
2018-04-25T02:57:29.332Z,959.52
2018-04-25T02:58:29.285Z,959.54
2018-04-25T02:59:29.239Z,959.53
2018-04-25T03:00:29.196Z,959.50
2018-04-25T03:01:29.149Z,959.45
2018-04-25T03:02:29.101Z,959.49
2018-04-25T03:03:29.059Z,959.50
2018-04-25T03:04:29.009Z,959.55
2018-04-25T03:05:28.972Z,959.51
2018-04-25T03:06:28.922Z,959.50
2018-04-25T03:07:28.879Z,959.48
2018-04-25T03:08:28.829Z,959.52
2018-04-25T03:09:28.784Z,959.53
2018-04-25T03:10:28.741Z,959.49
2018-04-25T03:11:28.694Z,959.52
2018-04-25T03:12:28.646Z,959.48
2018-04-25T03:13:28.600Z,959.52
2018-04-25T03:14:28.554Z,959.52
2018-04-25T03:15:28.559Z,959.50
2018-04-25T03:16:28.462Z,959.50
2018-04-25T03:17:28.417Z,959.47
2018-04-25T03:18:28.368Z,959.52
2018-04-25T03:19:28.325Z,959.51
2018-04-25T03:20:28.278Z,959.51
2018-04-25T03:21:28.233Z,959.51
2018-04-25T03:22:28.196Z,959.52
2018-04-25T03:23:28.144Z,959.47
2018-04-25T03:24:28.103Z,959.50
2018-04-25T03:25:28.052Z,959.53
2018-04-25T03:26:28.011Z,959.48
2018-04-25T03:27:27.957Z,959.51
2018-04-25T03:28:27.921Z,959.55
2018-04-25T03:29:27.867Z,959.52
2018-04-25T03:30:27.824Z,959.52
2018-04-25T03:31:27.781Z,959.50
2018-04-25T03:32:27.736Z,959.50
2018-04-25T03:33:27.683Z,959.46
2018-04-25T03:34:27.638Z,959.49
2018-04-25T03:35:27.591Z,959.50
2018-04-25T03:36:27.548Z,959.48
2018-04-25T03:37:27.501Z,959.51
2018-04-25T03:38:27.454Z,959.53
2018-04-25T03:39:27.409Z,959.53
2018-04-25T03:40:27.359Z,959.55
2018-04-25T03:41:27.316Z,959.55
2018-04-25T03:42:27.273Z,959.55
2018-04-25T03:43:27.229Z,959.56
2018-04-25T03:44:27.187Z,959.56
2018-04-25T03:45:27.134Z,959.51
2018-04-25T03:46:27.090Z,959.57
2018-04-25T03:47:27.041Z,959.54
2018-04-25T03:48:27.012Z,959.56
2018-04-25T03:49:26.952Z,959.56
2018-04-25T03:50:26.916Z,959.58
2018-04-25T03:51:26.863Z,959.53
2018-04-25T03:52:26.813Z,959.54
2018-04-25T03:53:26.769Z,959.53
2018-04-25T03:54:26.721Z,959.49
2018-04-25T03:55:26.779Z,959.50
2018-04-25T03:56:26.628Z,959.56
2018-04-25T03:57:26.583Z,959.51
2018-04-25T03:58:26.539Z,959.49
2018-04-25T03:59:26.490Z,959.48
2018-04-25T04:00:26.444Z,959.50
2018-04-25T04:01:26.399Z,959.46
2018-04-25T04:02:26.359Z,959.46
2018-04-25T04:03:26.305Z,959.51
2018-04-25T04:04:26.262Z,959.44
2018-04-25T04:05:26.218Z,959.47
2018-04-25T04:06:26.170Z,959.45
2018-04-25T04:07:26.121Z,959.47
2018-04-25T04:08:26.079Z,959.50
2018-04-25T04:09:26.033Z,959.47
2018-04-25T04:10:25.989Z,959.49
2018-04-25T04:11:25.936Z,959.50
2018-04-25T04:12:25.897Z,959.49
2018-04-25T04:13:25.858Z,959.51
2018-04-25T04:14:25.806Z,959.49
2018-04-25T04:15:25.757Z,959.53
2018-04-25T04:16:25.711Z,959.52
2018-04-25T04:17:25.666Z,959.54
2018-04-25T04:18:25.620Z,959.56
2018-04-25T04:19:25.576Z,959.58
2018-04-25T04:20:25.527Z,959.50
2018-04-25T04:21:25.481Z,959.55
2018-04-25T04:22:25.445Z,959.52
2018-04-25T04:23:25.390Z,959.52
2018-04-25T04:24:25.346Z,959.51
2018-04-25T04:25:25.299Z,959.49
2018-04-25T04:26:25.256Z,959.51
2018-04-25T04:27:25.206Z,959.48
2018-04-25T04:28:25.161Z,959.52
2018-04-25T04:29:25.120Z,959.53
2018-04-25T04:30:25.073Z,959.57
2018-04-25T04:31:25.027Z,959.56
2018-04-25T04:32:24.987Z,959.59
2018-04-25T04:33:24.947Z,959.53
2018-04-25T04:34:24.888Z,959.53
2018-04-25T04:35:24.841Z,959.57
2018-04-25T04:36:24.793Z,959.54
2018-04-25T04:37:24.748Z,959.57
2018-04-25T04:38:24.705Z,959.54
2018-04-25T04:39:24.657Z,959.58
2018-04-25T04:40:24.611Z,959.54
2018-04-25T04:41:24.569Z,959.60
2018-04-25T04:42:24.526Z,959.55
2018-04-25T04:43:24.475Z,959.56
2018-04-25T04:44:24.430Z,959.55
2018-04-25T04:45:24.383Z,959.59
2018-04-25T04:46:24.339Z,959.58
2018-04-25T04:47:24.293Z,959.63
2018-04-25T04:48:24.249Z,959.61
2018-04-25T04:49:24.210Z,959.63
2018-04-25T04:50:24.155Z,959.66
2018-04-25T04:51:24.107Z,959.67
2018-04-25T04:52:24.062Z,959.70
2018-04-25T04:53:24.019Z,959.71
2018-04-25T04:54:23.974Z,959.71
2018-04-25T04:55:23.935Z,959.67
2018-04-25T04:56:23.883Z,959.73
2018-04-25T04:57:23.842Z,959.74
2018-04-25T04:58:23.788Z,959.74
2018-04-25T04:59:23.742Z,959.77
2018-04-25T05:00:23.716Z,959.80
2018-04-25T05:01:23.653Z,959.78
2018-04-25T05:02:23.612Z,959.80
2018-04-25T05:03:23.557Z,959.83
2018-04-25T05:04:23.515Z,959.83
2018-04-25T05:05:23.470Z,959.82
2018-04-25T05:06:23.429Z,959.87
2018-04-25T05:07:23.377Z,959.85
2018-04-25T05:08:23.350Z,959.85
2018-04-25T05:09:23.288Z,959.87
2018-04-25T05:10:23.237Z,959.86
2018-04-25T05:11:23.196Z,959.89
2018-04-25T05:12:23.149Z,959.87
2018-04-25T05:13:23.106Z,959.85
2018-04-25T05:14:23.072Z,959.91
2018-04-25T05:15:23.025Z,959.92
2018-04-25T05:16:22.969Z,959.88
2018-04-25T05:17:22.926Z,959.91
2018-04-25T05:18:22.885Z,959.90
2018-04-25T05:19:22.848Z,959.89
2018-04-25T05:20:22.794Z,959.95
2018-04-25T05:21:22.757Z,959.97
2018-04-25T05:22:22.710Z,959.97
2018-04-25T05:23:22.660Z,959.94
2018-04-25T05:24:22.678Z,959.98
2018-04-25T05:25:22.572Z,959.98
2018-04-25T05:26:22.529Z,960.03
2018-04-25T05:27:22.483Z,959.98
2018-04-25T05:28:22.432Z,959.93
2018-04-25T05:29:58.000Z,959.94
2018-04-25T05:30:22.354Z,959.92
2018-04-25T05:31:22.312Z,959.88
2018-04-25T05:32:22.268Z,959.87
2018-04-25T05:33:22.226Z,959.87
2018-04-25T05:34:22.190Z,959.88
2018-04-25T05:35:22.145Z,959.93
2018-04-25T05:36:22.093Z,959.88
2018-04-25T05:37:22.053Z,959.88
2018-04-25T05:38:22.011Z,959.92
2018-04-25T05:39:21.963Z,959.97
2018-04-25T05:40:21.916Z,959.93
2018-04-25T05:41:21.875Z,959.95
2018-04-25T05:42:21.860Z,959.91
2018-04-25T05:43:21.790Z,959.92
2018-04-25T05:44:21.750Z,959.90
2018-04-25T05:45:21.699Z,959.89
2018-04-25T05:46:21.656Z,959.89
2018-04-25T05:47:21.614Z,959.88
2018-04-25T05:48:21.573Z,959.90
2018-04-25T05:49:21.531Z,959.91
2018-04-25T05:50:21.494Z,959.91
2018-04-25T05:51:21.477Z,959.92
2018-04-25T05:52:21.395Z,959.93
2018-04-25T05:53:21.356Z,959.93
2018-04-25T05:54:21.304Z,959.92
2018-04-25T05:55:21.269Z,959.95
2018-04-25T05:56:21.216Z,959.95
2018-04-25T05:57:21.183Z,959.93
2018-04-25T05:58:21.142Z,959.94
2018-04-25T05:59:21.086Z,959.95
2018-04-25T06:00:21.049Z,959.91
2018-04-25T06:01:20.999Z,959.92
2018-04-25T06:02:20.954Z,959.90
2018-04-25T06:03:20.930Z,959.88
2018-04-25T06:04:20.866Z,959.85
2018-04-25T06:05:20.826Z,959.83
2018-04-25T06:06:20.781Z,959.81
2018-04-25T06:07:20.738Z,959.87
2018-04-25T06:08:20.692Z,959.85
2018-04-25T06:09:20.655Z,959.88
2018-04-25T06:10:20.605Z,959.88
2018-04-25T06:11:20.565Z,959.89
2018-04-25T06:12:20.538Z,959.85
2018-04-25T06:13:20.480Z,959.85
2018-04-25T06:14:20.433Z,959.79
2018-04-25T06:15:20.396Z,959.82
2018-04-25T06:16:20.357Z,959.83
2018-04-25T06:17:20.320Z,959.85
2018-04-25T06:18:20.264Z,959.86
2018-04-25T06:19:20.216Z,959.89
2018-04-25T06:20:20.243Z,959.87
2018-04-25T06:21:20.127Z,959.86
2018-04-25T06:22:20.099Z,959.90
2018-04-25T06:23:20.056Z,959.89
2018-04-25T06:24:20.005Z,959.88
2018-04-25T06:25:19.955Z,959.91
2018-04-25T06:26:19.915Z,959.87
2018-04-25T06:27:19.872Z,959.89
2018-04-25T06:28:19.911Z,959.88
2018-04-25T06:29:19.792Z,959.90
2018-04-25T06:30:19.745Z,959.82
2018-04-25T06:31:19.704Z,959.90
2018-04-25T06:32:19.664Z,959.86
2018-04-25T06:33:19.623Z,959.87
2018-04-25T06:34:19.576Z,959.90
2018-04-25T06:35:19.539Z,959.92
2018-04-25T06:36:19.486Z,959.90
2018-04-25T06:37:19.473Z,959.88
2018-04-25T06:38:19.408Z,959.87
2018-04-25T06:39:19.389Z,959.88
2018-04-25T06:40:19.311Z,959.85
2018-04-25T06:41:19.278Z,959.85
2018-04-25T06:42:19.238Z,959.82
2018-04-25T06:43:19.193Z,959.84
2018-04-25T06:44:19.156Z,959.83
2018-04-25T06:45:19.112Z,959.80
2018-04-25T06:46:19.076Z,959.77
2018-04-25T06:47:19.030Z,959.70
2018-04-25T06:48:18.991Z,959.74
2018-04-25T06:49:18.947Z,959.75
2018-04-25T06:50:18.897Z,959.73
2018-04-25T06:51:18.856Z,959.69
2018-04-25T06:52:18.819Z,959.70
2018-04-25T06:53:18.861Z,959.71
2018-04-25T06:54:18.730Z,959.69
2018-04-25T06:55:18.686Z,959.73
2018-04-25T06:56:18.649Z,959.67
2018-04-25T06:57:18.603Z,959.69
2018-04-25T06:58:18.567Z,959.72
2018-04-25T06:59:18.524Z,959.76
2018-04-25T07:02:32.246Z,959.75
2018-04-25T07:03:32.189Z,959.72
2018-04-25T07:05:25.510Z,959.78
2018-04-25T07:06:25.436Z,959.78
2018-04-25T07:07:25.393Z,959.78
2018-04-25T07:08:25.366Z,959.79
2018-04-25T07:09:25.310Z,959.73
2018-04-25T07:10:25.277Z,959.80
2018-04-25T07:11:25.227Z,959.79
2018-04-25T07:12:25.188Z,959.73
2018-04-25T07:13:25.224Z,959.76
2018-04-25T07:14:25.111Z,959.78
2018-04-25T07:15:25.065Z,959.76
2018-04-25T07:16:25.027Z,959.75
2018-04-25T07:17:24.982Z,959.79
2018-04-25T07:18:24.944Z,959.81
2018-04-25T07:19:24.905Z,959.77
2018-04-25T07:20:24.873Z,959.76
2018-04-25T07:21:24.818Z,959.78
2018-04-25T07:22:24.866Z,959.76
2018-04-25T07:23:24.737Z,959.74
2018-04-25T07:24:24.693Z,959.73
2018-04-25T07:25:24.654Z,959.75
2018-04-25T07:26:24.612Z,959.72
2018-04-25T07:27:24.587Z,959.66
2018-04-25T07:28:24.534Z,959.65
2018-04-25T07:29:24.568Z,959.63
2018-04-25T07:30:24.452Z,959.60
2018-04-25T07:31:24.407Z,959.59
2018-04-25T07:32:24.388Z,959.57
2018-04-25T07:33:24.572Z,959.59
2018-04-25T07:34:24.286Z,959.57
2018-04-25T07:35:24.252Z,959.60
2018-04-25T07:36:24.267Z,959.55
2018-04-25T07:37:24.162Z,959.50
2018-04-25T07:38:24.129Z,959.51
2018-04-25T07:39:24.091Z,959.48
2018-04-25T07:40:24.058Z,959.42
2018-04-25T07:41:24.003Z,959.46
2018-04-25T07:42:23.966Z,959.48
2018-04-25T07:43:23.931Z,959.41
2018-04-25T07:44:23.884Z,959.38
2018-04-25T07:45:23.942Z,959.46
2018-04-25T07:46:51.590Z,959.42
2018-04-25T07:47:23.761Z,959.43
2018-04-25T07:48:23.724Z,959.40
2018-04-25T07:49:23.682Z,959.38
2018-04-25T07:50:23.652Z,959.33
2018-04-25T07:51:23.611Z,959.39
2018-04-25T07:52:23.568Z,959.40
2018-04-25T07:53:23.509Z,959.38
2018-04-25T07:54:23.474Z,959.41
2018-04-25T07:55:23.438Z,959.37
2018-04-25T07:56:23.442Z,959.36
2018-04-25T07:57:23.346Z,959.36
2018-04-25T07:58:23.347Z,959.31
2018-04-25T07:59:23.272Z,959.32
2018-04-25T08:00:23.232Z,959.33
2018-04-25T08:01:23.197Z,959.38
2018-04-25T08:02:23.164Z,959.42
2018-04-25T08:03:23.111Z,959.30
2018-04-25T08:04:23.083Z,959.33
2018-04-25T08:05:23.069Z,959.29
2018-04-25T08:06:23.006Z,959.25
2018-04-25T08:07:22.959Z,959.26
2018-04-25T08:08:22.909Z,959.28
2018-04-25T08:09:22.870Z,959.28
2018-04-25T08:10:22.817Z,959.28
2018-04-25T08:11:22.789Z,959.34
2018-04-25T08:12:22.805Z,959.32
2018-04-25T08:13:22.778Z,959.31
2018-04-25T08:14:22.661Z,959.25
2018-04-25T08:15:22.625Z,959.25
2018-04-25T08:16:22.575Z,959.24
2018-04-25T08:17:22.540Z,959.29
2018-04-25T08:18:22.503Z,959.30
2018-04-25T08:19:22.472Z,959.27
2018-04-25T08:20:22.414Z,959.31
2018-04-25T08:21:22.380Z,959.27
2018-04-25T08:22:22.414Z,959.30
2018-04-25T08:23:22.295Z,959.28
2018-04-25T08:24:22.292Z,959.29
2018-04-25T08:25:22.217Z,959.24
2018-04-25T08:26:22.182Z,959.32
2018-04-25T08:27:22.132Z,959.29
2018-04-25T08:28:22.097Z,959.27
2018-04-25T08:29:22.062Z,959.33
2018-04-25T08:30:22.023Z,959.26
2018-04-25T08:31:21.980Z,959.27
2018-04-25T08:32:21.943Z,959.30
2018-04-25T08:33:21.900Z,959.27
2018-04-25T08:34:21.953Z,959.22
2018-04-25T08:35:21.823Z,959.30
2018-04-25T08:36:21.780Z,959.31
2018-04-25T08:37:21.792Z,959.29
2018-04-25T08:38:21.697Z,959.20
2018-04-25T08:39:21.658Z,959.29
2018-04-25T08:40:21.615Z,959.36
2018-04-25T08:41:21.583Z,959.18
2018-04-25T08:42:21.540Z,959.31
2018-04-25T08:43:21.501Z,959.30
2018-04-25T08:44:21.465Z,959.32
2018-04-25T08:45:21.417Z,959.34
2018-04-25T08:46:21.377Z,959.41
2018-04-25T08:47:21.339Z,959.30
2018-04-25T08:48:21.295Z,959.34
2018-04-25T08:49:21.268Z,959.34
2018-04-25T08:50:21.228Z,959.46
2018-04-25T08:51:21.192Z,959.36
2018-04-25T08:52:21.139Z,959.34
2018-04-25T08:53:21.099Z,959.39
2018-04-25T08:54:21.069Z,959.27
2018-04-25T08:55:21.034Z,959.40
2018-04-25T08:56:20.992Z,959.30
2018-04-25T08:57:20.949Z,959.37
2018-04-25T08:58:20.909Z,959.24
2018-04-25T08:59:20.890Z,959.30
2018-04-25T09:00:20.949Z,959.24
2018-04-25T09:01:20.794Z,959.15
2018-04-25T09:02:20.766Z,959.32
2018-04-25T09:03:20.712Z,959.24
2018-04-25T09:04:20.674Z,959.30
2018-04-25T09:05:20.640Z,959.18
2018-04-25T09:06:20.598Z,959.16
2018-04-25T09:07:20.556Z,959.19
2018-04-25T09:08:20.519Z,959.13
2018-04-25T09:09:20.487Z,959.13
2018-04-25T09:10:20.449Z,959.14
2018-04-25T09:11:41.397Z,959.14
2018-04-25T09:12:20.375Z,959.27
2018-04-25T09:13:20.372Z,959.14
2018-04-25T09:14:20.287Z,959.18
2018-04-25T09:15:20.257Z,959.16
2018-04-25T09:16:20.204Z,959.12
2018-04-25T09:17:20.171Z,959.13
2018-04-25T09:18:20.132Z,959.20
2018-04-25T09:19:20.224Z,959.12
2018-04-25T09:20:20.132Z,959.25
2018-04-25T09:21:20.003Z,959.22
2018-04-25T09:22:19.966Z,959.20
2018-04-25T09:25:07.126Z,959.19
2018-04-25T09:25:51.978Z,959.17
2018-04-25T09:26:52.554Z,959.16
2018-04-25T09:27:51.866Z,959.17
2018-04-25T09:28:51.851Z,959.13
2018-04-25T09:29:51.780Z,959.22
2018-04-25T09:30:51.745Z,959.09
2018-04-25T09:31:51.723Z,959.09
2018-04-25T09:32:51.666Z,959.19
2018-04-25T09:33:51.628Z,959.10
2018-04-25T09:34:51.622Z,958.99
2018-04-25T09:35:51.563Z,959.12
2018-04-25T09:36:51.512Z,959.02
2018-04-25T09:37:51.473Z,959.03
2018-04-25T09:38:51.435Z,959.11
2018-04-25T09:39:51.395Z,959.00
2018-04-25T09:40:51.350Z,958.90
2018-04-25T09:41:51.319Z,959.02
2018-04-25T09:42:51.281Z,959.02
2018-04-25T09:43:51.241Z,959.03
2018-04-25T09:44:51.203Z,958.86
2018-04-25T09:45:51.239Z,958.75
2018-04-25T09:46:51.128Z,958.83
2018-04-25T09:47:51.092Z,958.83
2018-04-25T09:48:51.050Z,958.67
2018-04-25T09:49:51.020Z,958.70
2018-04-25T09:50:50.969Z,958.75
2018-04-25T09:51:51.004Z,958.79
2018-04-25T09:52:50.887Z,958.80
2018-04-25T09:53:50.875Z,958.87
2018-04-25T09:54:50.821Z,958.78
2018-04-25T09:55:50.780Z,958.86
2018-04-25T09:56:50.740Z,958.72
2018-04-25T09:57:50.720Z,958.72
2018-04-25T09:58:50.670Z,958.54
2018-04-25T09:59:50.624Z,958.61
2018-04-25T10:00:50.585Z,958.81
2018-04-25T10:01:50.540Z,958.64
2018-04-25T10:02:50.504Z,958.68
2018-04-25T10:03:50.472Z,958.64
2018-04-25T10:04:50.420Z,958.74
2018-04-25T10:05:50.388Z,958.79
2018-04-25T10:06:50.356Z,958.76
2018-04-25T10:07:50.307Z,958.69
2018-04-25T10:08:50.266Z,958.62
2018-04-25T10:09:50.234Z,958.67
2018-04-25T10:10:50.281Z,958.61
2018-04-25T10:11:50.161Z,958.68
2018-04-25T10:12:50.120Z,958.80
2018-04-25T10:13:50.082Z,958.61
2018-04-25T10:14:50.046Z,958.41
2018-04-25T10:15:50.002Z,958.56
2018-04-25T10:16:49.959Z,958.55
2018-04-25T10:17:49.918Z,958.57
2018-04-25T10:18:49.946Z,958.51
2018-04-25T10:19:49.839Z,958.50
2018-04-25T10:20:49.806Z,958.46
2018-04-25T10:21:49.765Z,958.57
2018-04-25T10:22:49.748Z,958.58
2018-04-25T10:23:49.700Z,958.54
2018-04-25T10:24:49.648Z,958.47
2018-04-25T10:25:49.612Z,958.58
2018-04-25T10:26:49.577Z,958.44
2018-04-25T10:27:49.538Z,958.64
2018-04-25T10:28:49.500Z,958.52
2018-04-25T10:29:49.457Z,958.61
2018-04-25T10:30:49.422Z,958.42
2018-04-25T10:31:49.375Z,958.53
2018-04-25T10:32:49.336Z,958.33
2018-04-25T10:33:49.305Z,958.30
2018-04-25T10:34:49.259Z,958.37
2018-04-25T10:35:49.233Z,958.51
2018-04-25T10:36:49.189Z,958.60
2018-04-25T10:37:49.144Z,958.43
2018-04-25T10:38:49.154Z,958.56
2018-04-25T10:39:49.067Z,958.56
2018-04-25T10:40:49.033Z,958.60
2018-04-25T10:41:48.996Z,958.54
2018-04-25T10:42:48.951Z,958.37
2018-04-25T10:43:48.914Z,958.50
2018-04-25T10:44:48.873Z,958.44
2018-04-25T10:45:48.837Z,958.51
2018-04-25T10:46:48.796Z,958.39
2018-04-25T10:47:48.757Z,958.56
2018-04-25T10:48:48.722Z,958.55
2018-04-25T10:49:48.690Z,958.48
2018-04-25T10:50:48.643Z,958.42
2018-04-25T10:51:48.608Z,958.50
2018-04-25T10:52:48.567Z,958.46
2018-04-25T10:53:48.529Z,958.33
2018-04-25T10:54:48.485Z,958.57
2018-04-25T10:55:48.454Z,958.35
2018-04-25T10:56:48.415Z,958.41
2018-04-25T10:57:48.378Z,958.56
2018-04-25T10:58:48.334Z,958.28
2018-04-25T10:59:48.291Z,958.29
2018-04-25T11:00:48.260Z,958.48
2018-04-25T11:01:48.247Z,958.25
2018-04-25T11:02:48.183Z,958.36
2018-04-25T11:03:48.916Z,958.33
2018-04-25T11:04:48.122Z,958.34
2018-04-25T11:05:48.067Z,958.31
2018-04-25T11:06:48.038Z,958.32
2018-04-25T11:07:47.984Z,957.95
2018-04-25T11:08:47.951Z,958.27
2018-04-25T11:09:47.917Z,958.40
2018-04-25T11:10:47.874Z,958.26
2018-04-25T11:11:47.835Z,958.33
2018-04-25T11:12:47.796Z,958.30
2018-04-25T11:13:47.760Z,958.16
2018-04-25T11:14:47.722Z,958.19
2018-04-25T11:15:47.683Z,958.32
2018-04-25T11:16:47.646Z,958.22
2018-04-25T11:17:47.606Z,958.16
2018-04-25T11:18:47.569Z,958.14
2018-04-25T11:19:47.542Z,957.84
2018-04-25T11:20:47.492Z,958.12
2018-04-25T11:21:47.453Z,958.32
2018-04-25T11:22:47.415Z,958.16
2018-04-25T11:23:47.374Z,958.10
2018-04-25T11:24:47.339Z,958.12
2018-04-25T11:25:47.303Z,958.09
2018-04-25T11:26:47.253Z,958.06
2018-04-25T11:27:47.221Z,958.05
2018-04-25T11:28:47.184Z,957.92
2018-04-25T11:29:47.149Z,958.04
2018-04-25T11:30:47.110Z,958.21
2018-04-25T11:31:47.071Z,958.02
2018-04-25T11:32:47.036Z,958.09
2018-04-25T11:33:46.990Z,957.99
2018-04-25T11:34:46.958Z,957.94
2018-04-25T11:35:46.919Z,958.02
2018-04-25T11:36:46.884Z,957.98
2018-04-25T11:37:46.872Z,958.02
2018-04-25T11:38:46.814Z,958.02
2018-04-25T11:39:46.765Z,958.02
2018-04-25T11:40:46.728Z,958.01
2018-04-25T11:41:46.690Z,958.00
2018-04-25T11:42:46.655Z,957.95
2018-04-25T11:43:46.613Z,957.98
2018-04-25T11:44:46.575Z,958.06
2018-04-25T11:45:46.539Z,957.90
2018-04-25T11:46:46.502Z,957.87
2018-04-25T11:47:46.549Z,957.99
2018-04-25T11:48:46.422Z,957.98
2018-04-25T11:49:46.394Z,957.88
2018-04-25T11:50:46.349Z,957.77
2018-04-25T11:51:46.314Z,957.96
2018-04-25T11:52:46.271Z,958.04
2018-04-25T11:53:46.238Z,957.99
2018-04-25T11:54:46.194Z,958.02
2018-04-25T11:55:46.152Z,957.96
2018-04-25T11:56:46.115Z,957.94
2018-04-25T11:57:46.132Z,957.78
2018-04-25T11:58:46.076Z,957.97
2018-04-25T11:59:46.041Z,958.01
2018-04-25T12:00:45.958Z,957.89
2018-04-25T12:01:45.926Z,957.93
2018-04-25T12:02:45.953Z,958.06
2018-04-25T12:03:45.847Z,957.87
2018-04-25T12:04:45.816Z,957.97
2018-04-25T12:05:45.778Z,958.04
2018-04-25T12:06:45.736Z,957.79
2018-04-25T12:07:45.692Z,957.85
2018-04-25T12:08:45.654Z,958.01
2018-04-25T12:09:45.617Z,957.95
2018-04-25T12:10:45.586Z,957.93
2018-04-25T12:11:45.540Z,957.91
2018-04-25T12:12:45.501Z,958.11
2018-04-25T12:13:45.462Z,957.78
2018-04-25T12:14:45.433Z,957.88
2018-04-25T12:15:45.390Z,957.89
2018-04-25T12:16:45.350Z,957.85
2018-04-25T12:17:45.425Z,957.88
2018-04-25T12:18:45.280Z,957.97
2018-04-25T12:19:45.233Z,957.85
2018-04-25T12:20:45.250Z,957.81
2018-04-25T12:21:45.159Z,957.97
2018-04-25T12:22:45.117Z,957.91
2018-04-25T12:23:45.151Z,957.78
2018-04-25T12:24:45.039Z,957.87
2018-04-25T12:25:45.004Z,957.85
2018-04-25T12:26:44.964Z,957.85
2018-04-25T12:27:44.924Z,957.85
2018-04-25T12:28:44.888Z,957.90
2018-04-25T12:29:44.925Z,957.82
2018-04-25T12:30:44.809Z,957.84
2018-04-25T12:31:44.771Z,957.80
2018-04-25T12:32:44.732Z,957.79